KOBE/OBE METAR and TAF weather

Enter ICAO airport designator
Station Type Date Time Source
KOBE METAR 2019/04/22 17:55 UTC NOAA

KOBE 221755Z AUTO 33006KT 10SM CLR 26/10 A3014 RMK AO2


Station Type Date Time Source
KOBE Decoded METAR 2019/04/22 17:55 UTC NOAA

Okeechobee County Airport, FL, United States (KOBE) 27-15-60N 080-51-02W
Apr 22, 2019 - 01:55 PM EDT / 2019.04.22 1755 UTC
Wind: from the NNW (330 degrees) at 7 MPH (6 KT):0
Visibility: 10 mile(s):0
Sky conditions: clear
Temperature: 78 F (26 C)
Dew Point: 50 F (10 C)
Relative Humidity: 36%
Pressure (altimeter): 30.14 in. Hg (1020 hPa)
ob: KOBE 221755Z AUTO 33006KT 10SM CLR 26/10 A3014 RMK AO2
cycle: 18

Station Type Date Time Source
KOBE TAF UTC NOAA

Error!

Example: see airport list